createdAt,value
2018-05-02T00:00:49.113Z,6.46
2018-05-02T00:02:41.931Z,6.48
2018-05-02T00:03:41.875Z,6.44
2018-05-02T00:05:34.901Z,6.45
2018-05-02T00:06:34.841Z,6.45
2018-05-02T00:08:27.835Z,6.39
2018-05-02T00:09:27.852Z,6.45
2018-05-02T00:11:21.124Z,6.42
2018-05-02T00:12:20.971Z,6.42
2018-05-02T00:14:13.943Z,6.38
2018-05-02T00:15:13.900Z,6.28
2018-05-02T00:17:06.727Z,6.33
2018-05-02T00:18:06.680Z,6.33
2018-05-02T00:19:59.892Z,6.26
2018-05-02T00:20:59.856Z,6.24
2018-05-02T00:22:52.847Z,6.30
2018-05-02T00:23:52.799Z,6.22
2018-05-02T00:25:46.135Z,6.20
2018-05-02T00:26:45.973Z,6.16
2018-05-02T00:28:39.087Z,6.20
2018-05-02T00:29:38.938Z,6.17
2018-05-02T00:31:31.941Z,6.12
2018-05-02T00:32:31.886Z,6.17
2018-05-02T00:34:24.713Z,6.11
2018-05-02T00:35:24.657Z,6.17
2018-05-02T00:37:17.735Z,6.16
2018-05-02T00:38:17.656Z,6.07
2018-05-02T00:40:10.458Z,5.99
2018-05-02T00:41:10.427Z,6.05
2018-05-02T00:43:03.910Z,6.02
2018-05-02T00:44:03.787Z,6.04
2018-05-02T00:45:56.858Z,6.02
2018-05-02T00:46:56.742Z,5.99
2018-05-02T00:48:49.752Z,6.04
2018-05-02T00:49:49.688Z,6.01
2018-05-02T00:51:42.657Z,6.05
2018-05-02T00:52:42.450Z,6.04
2018-05-02T00:54:35.443Z,5.99
2018-05-02T00:55:35.397Z,6.07
2018-05-02T00:57:28.231Z,6.01
2018-05-02T00:58:28.161Z,6.02
2018-05-02T01:00:21.183Z,5.99
2018-05-02T01:01:21.116Z,5.89
2018-05-02T01:03:14.266Z,5.87
2018-05-02T01:04:14.111Z,5.94
2018-05-02T01:06:06.927Z,5.89
2018-05-02T01:07:06.897Z,5.86
2018-05-02T01:08:59.897Z,5.87
2018-05-02T01:09:59.888Z,5.91
2018-05-02T01:11:52.640Z,5.84
2018-05-02T01:12:52.601Z,5.87
2018-05-02T01:14:45.578Z,5.79
2018-05-02T01:15:45.421Z,5.83
2018-05-02T01:17:38.427Z,5.80
2018-05-02T01:18:38.362Z,5.83
2018-05-02T01:20:31.161Z,5.82
2018-05-02T01:21:31.121Z,5.80
2018-05-02T01:23:24.137Z,5.76
2018-05-02T01:24:24.072Z,5.69
2018-05-02T01:26:16.983Z,5.80
2018-05-02T01:27:16.945Z,5.72
2018-05-02T01:29:09.981Z,5.75
2018-05-02T01:30:09.913Z,5.72
2018-05-02T01:32:02.892Z,5.73
2018-05-02T01:33:02.854Z,5.79
2018-05-02T01:34:56.072Z,5.73
2018-05-02T01:35:55.992Z,5.68
2018-05-02T01:37:49.006Z,5.71
2018-05-02T01:38:49.031Z,5.64
2018-05-02T01:40:42.289Z,5.76
2018-05-02T01:41:42.107Z,5.68
2018-05-02T01:43:35.091Z,5.64
2018-05-02T01:44:35.045Z,5.66
2018-05-02T01:46:28.034Z,5.65
2018-05-02T01:47:27.994Z,5.62
2018-05-02T01:49:20.790Z,5.64
2018-05-02T01:50:20.728Z,5.61
2018-05-02T01:52:13.553Z,5.61
2018-05-02T01:53:13.515Z,5.53
2018-05-02T01:55:06.498Z,5.53
2018-05-02T01:56:06.449Z,5.51
2018-05-02T01:57:59.455Z,5.61
2018-05-02T01:58:59.448Z,5.56
2018-05-02T02:00:52.670Z,5.54
2018-05-02T02:01:52.579Z,5.48
2018-05-02T02:03:45.647Z,5.50
2018-05-02T02:04:45.638Z,5.50
2018-05-02T02:06:38.942Z,5.51
2018-05-02T02:07:38.768Z,5.48
2018-05-02T02:09:31.774Z,5.47
2018-05-02T02:10:31.723Z,5.35
2018-05-02T02:12:24.519Z,5.39
2018-05-02T02:13:24.504Z,5.36
2018-05-02T02:15:17.728Z,5.53
2018-05-02T02:16:17.646Z,5.43
2018-05-02T02:18:10.629Z,5.38
2018-05-02T02:19:10.593Z,5.41
2018-05-02T02:21:03.894Z,5.43
2018-05-02T02:22:03.741Z,5.41
2018-05-02T02:23:56.745Z,5.47
2018-05-02T02:24:56.700Z,5.44
2018-05-02T02:26:49.769Z,5.38
2018-05-02T02:27:49.689Z,5.44
2018-05-02T02:29:42.526Z,5.39
2018-05-02T02:30:42.472Z,5.44
2018-05-02T02:32:35.504Z,5.41
2018-05-02T02:33:35.429Z,5.41
2018-05-02T02:35:28.445Z,5.46
2018-05-02T02:36:28.464Z,5.47
2018-05-02T02:38:21.620Z,5.43
2018-05-02T02:39:21.545Z,5.44
2018-05-02T02:41:14.355Z,5.50
2018-05-02T02:42:14.300Z,5.29
2018-05-02T02:44:07.304Z,5.38
2018-05-02T02:45:07.266Z,5.36
2018-05-02T02:47:00.111Z,5.32
2018-05-02T02:48:00.026Z,5.35
2018-05-02T02:49:52.969Z,5.35
2018-05-02T02:50:52.869Z,5.32
2018-05-02T02:52:45.887Z,5.30
2018-05-02T02:53:45.837Z,5.26
2018-05-02T02:55:38.873Z,5.36
2018-05-02T02:56:38.826Z,5.36
2018-05-02T02:58:31.745Z,5.36
2018-05-02T02:59:31.695Z,5.32
2018-05-02T03:01:24.691Z,5.33
2018-05-02T03:02:24.641Z,5.30
2018-05-02T03:04:17.687Z,5.35
2018-05-02T03:05:17.642Z,5.30
2018-05-02T03:07:10.840Z,5.32
2018-05-02T03:08:10.742Z,5.26
2018-05-02T03:10:03.551Z,5.32
2018-05-02T03:11:03.515Z,5.33
2018-05-02T03:12:56.684Z,5.30
2018-05-02T03:13:56.629Z,5.28
2018-05-02T03:15:49.686Z,5.35
2018-05-02T03:16:49.489Z,5.28
2018-05-02T03:18:42.529Z,5.26
2018-05-02T03:19:42.461Z,5.26
2018-05-02T03:21:35.505Z,5.18
2018-05-02T03:22:35.457Z,5.21
2018-05-02T03:24:28.410Z,5.20
2018-05-02T03:25:28.280Z,5.11
2018-05-02T03:27:21.282Z,5.17
2018-05-02T03:28:21.225Z,5.11
2018-05-02T03:30:14.034Z,5.10
2018-05-02T03:31:13.971Z,5.04
2018-05-02T03:33:06.803Z,5.04
2018-05-02T03:34:06.734Z,5.11
2018-05-02T03:35:59.949Z,5.07
2018-05-02T03:36:59.886Z,5.07
2018-05-02T03:38:52.916Z,5.11
2018-05-02T03:39:52.861Z,4.93
2018-05-02T03:41:45.855Z,4.94
2018-05-02T03:42:45.805Z,4.99
2018-05-02T03:44:38.726Z,4.96
2018-05-02T03:45:38.621Z,5.04
2018-05-02T03:47:31.614Z,4.97
2018-05-02T03:48:31.574Z,4.90
2018-05-02T03:50:24.395Z,5.04
2018-05-02T03:51:24.339Z,4.92
2018-05-02T03:53:17.755Z,4.96
2018-05-02T03:54:17.677Z,4.84
2018-05-02T03:56:10.711Z,4.92
2018-05-02T03:57:10.655Z,4.90
2018-05-02T03:59:03.844Z,4.93
2018-05-02T04:00:03.795Z,4.87
2018-05-02T04:01:56.850Z,4.92
2018-05-02T04:02:56.775Z,4.92
2018-05-02T04:04:49.776Z,4.93
2018-05-02T04:05:49.730Z,4.90
2018-05-02T04:07:42.784Z,4.84
2018-05-02T04:08:42.631Z,4.93
2018-05-02T04:10:35.420Z,4.87
2018-05-02T04:11:35.344Z,4.74
2018-05-02T04:13:28.375Z,4.80
2018-05-02T04:14:28.305Z,4.80
2018-05-02T04:16:21.376Z,4.82
2018-05-02T04:17:21.311Z,4.82
2018-05-02T04:19:14.384Z,4.87
2018-05-02T04:20:14.340Z,4.86
2018-05-02T04:22:07.407Z,4.90
2018-05-02T04:23:07.396Z,4.94
2018-05-02T04:25:00.584Z,4.82
2018-05-02T04:26:00.571Z,4.84
2018-05-02T04:27:53.542Z,4.92
2018-05-02T04:28:53.492Z,4.89
2018-05-02T04:30:46.766Z,4.84
2018-05-02T04:31:46.653Z,4.89
2018-05-02T04:33:39.667Z,4.87
2018-05-02T04:34:39.625Z,4.86
2018-05-02T04:36:32.651Z,4.84
2018-05-02T04:37:32.616Z,4.82
2018-05-02T04:39:25.648Z,4.93
2018-05-02T04:40:25.418Z,4.86
2018-05-02T04:42:18.457Z,4.87
2018-05-02T04:43:18.381Z,4.92
2018-05-02T04:45:11.186Z,4.90
2018-05-02T04:46:11.131Z,4.89
2018-05-02T04:48:04.487Z,4.90
2018-05-02T04:49:04.250Z,4.93
2018-05-02T04:50:57.244Z,4.93
2018-05-02T04:51:57.205Z,4.92
2018-05-02T04:53:50.217Z,4.92
2018-05-02T04:54:50.160Z,4.94
2018-05-02T04:56:43.461Z,4.94
2018-05-02T04:57:43.423Z,4.87
2018-05-02T04:59:36.268Z,4.89
2018-05-02T05:00:36.176Z,4.99
2018-05-02T05:02:28.978Z,4.93
2018-05-02T05:03:28.958Z,4.96
2018-05-02T05:05:22.223Z,4.99
2018-05-02T05:06:22.133Z,4.99
2018-05-02T05:08:15.123Z,4.97
2018-05-02T05:09:15.076Z,4.99
2018-05-02T05:11:07.909Z,5.10
2018-05-02T05:12:07.930Z,5.10
2018-05-02T05:14:01.048Z,5.14
2018-05-02T05:15:00.970Z,5.07
2018-05-02T05:16:53.994Z,5.15
2018-05-02T05:17:53.936Z,5.18
2018-05-02T05:19:46.861Z,5.25
2018-05-02T05:20:46.796Z,5.30
2018-05-02T05:22:39.598Z,5.25
2018-05-02T05:23:39.547Z,5.29
2018-05-02T05:25:33.377Z,5.29
2018-05-02T05:26:32.530Z,5.32
2018-05-02T05:28:25.513Z,5.30
2018-05-02T05:29:26.851Z,5.29
2018-05-02T05:31:18.852Z,5.50
2018-05-02T05:32:18.777Z,5.47
2018-05-02T05:34:11.782Z,5.48
2018-05-02T05:35:11.774Z,5.38
2018-05-02T05:37:04.851Z,5.46
2018-05-02T05:38:06.027Z,5.56
2018-05-02T05:39:57.641Z,5.50
2018-05-02T05:40:57.554Z,5.62
2018-05-02T05:42:50.584Z,5.72
2018-05-02T05:43:51.878Z,5.66
2018-05-02T05:45:43.804Z,5.75
2018-05-02T05:46:43.697Z,5.73
2018-05-02T05:48:36.712Z,5.80
2018-05-02T05:49:36.645Z,5.83
2018-05-02T05:51:29.686Z,5.90
2018-05-02T05:52:29.618Z,5.94
2018-05-02T05:54:23.050Z,5.99
2018-05-02T05:55:22.430Z,5.99
2018-05-02T05:57:15.444Z,6.04
2018-05-02T05:58:15.382Z,6.02
2018-05-02T06:00:08.387Z,6.05
2018-05-02T06:01:08.358Z,6.14
2018-05-02T06:03:01.576Z,6.16
2018-05-02T06:04:01.498Z,6.16
2018-05-02T06:05:54.336Z,6.27
2018-05-02T06:06:54.255Z,6.30
2018-05-02T06:08:47.290Z,6.42
2018-05-02T06:09:47.236Z,6.45
2018-05-02T06:11:40.483Z,6.48
2018-05-02T06:12:40.456Z,6.51
2018-05-02T06:14:33.500Z,6.52
2018-05-02T06:15:33.517Z,6.56
2018-05-02T06:17:26.648Z,6.64
2018-05-02T06:18:26.568Z,6.64
2018-05-02T06:20:19.365Z,6.75
2018-05-02T06:21:19.328Z,6.77
2018-05-02T06:23:12.348Z,6.88
2018-05-02T06:24:12.296Z,6.85
2018-05-02T06:26:05.525Z,6.99
2018-05-02T06:27:05.470Z,6.99
2018-05-02T06:28:58.525Z,7.06
2018-05-02T06:29:58.558Z,7.00
2018-05-02T06:31:51.742Z,7.21
2018-05-02T06:32:51.591Z,7.14
2018-05-02T06:34:44.596Z,7.36
2018-05-02T06:35:44.564Z,7.32
2018-05-02T06:37:37.476Z,7.47
2018-05-02T06:38:37.379Z,7.43
2018-05-02T06:40:30.575Z,7.47
2018-05-02T06:41:30.530Z,7.56
2018-05-02T06:43:23.599Z,7.69
2018-05-02T06:44:23.661Z,7.72
2018-05-02T06:46:16.720Z,7.76
2018-05-02T06:47:16.648Z,7.82
2018-05-02T06:49:09.686Z,7.95
2018-05-02T06:50:09.616Z,8.05
2018-05-02T06:52:02.626Z,8.05
2018-05-02T06:53:02.571Z,8.18
2018-05-02T06:54:55.398Z,8.27
2018-05-02T06:55:55.349Z,8.33
2018-05-02T06:57:48.360Z,8.44
2018-05-02T06:58:48.313Z,8.42
2018-05-02T07:00:41.347Z,8.52
2018-05-02T07:01:41.317Z,8.52
2018-05-02T07:03:34.537Z,8.71
2018-05-02T07:04:34.436Z,8.76
2018-05-02T07:06:27.464Z,8.84
2018-05-02T07:07:27.413Z,8.87
2018-05-02T07:09:20.226Z,9.03
2018-05-02T07:10:20.167Z,9.08
2018-05-02T07:12:13.415Z,9.14
2018-05-02T07:13:13.364Z,9.29
2018-05-02T07:15:06.396Z,9.29
2018-05-02T07:16:06.443Z,9.44
2018-05-02T07:17:59.611Z,9.56
2018-05-02T07:18:59.494Z,9.64
2018-05-02T07:20:52.545Z,9.68
2018-05-02T07:21:52.650Z,9.80
2018-05-02T07:23:45.843Z,9.92
2018-05-02T07:24:45.664Z,9.94
2018-05-02T07:26:38.691Z,10.13
2018-05-02T07:27:38.647Z,10.05
2018-05-02T07:29:31.664Z,10.13
2018-05-02T07:30:31.605Z,10.15
2018-05-02T07:32:24.691Z,10.31
2018-05-02T07:33:24.655Z,10.31
2018-05-02T07:35:17.695Z,10.41
2018-05-02T07:36:17.719Z,10.48
2018-05-02T07:38:11.163Z,10.64
2018-05-02T07:39:11.099Z,10.63
2018-05-02T07:41:03.950Z,10.81
2018-05-02T07:42:04.002Z,10.82
2018-05-02T07:43:57.706Z,10.89
2018-05-02T07:44:57.022Z,10.99
2018-05-02T07:46:50.109Z,11.07
2018-05-02T07:47:51.344Z,11.18
2018-05-02T07:49:43.322Z,11.30
2018-05-02T07:50:43.212Z,11.37
2018-05-02T07:52:36.439Z,11.51
2018-05-02T07:53:36.435Z,11.43
2018-05-02T07:55:30.694Z,11.55
2018-05-02T07:56:29.540Z,11.59
2018-05-02T07:58:22.611Z,11.60
2018-05-02T07:59:22.576Z,11.66
2018-05-02T08:01:15.862Z,11.69
2018-05-02T08:02:15.745Z,11.68
2018-05-02T08:04:08.821Z,11.80
2018-05-02T08:05:08.863Z,11.95
2018-05-02T08:07:01.987Z,11.90
2018-05-02T08:08:01.893Z,12.02
2018-05-02T08:09:54.730Z,12.03
2018-05-02T08:10:55.248Z,12.07
2018-05-02T08:12:47.472Z,12.13
2018-05-02T08:13:47.448Z,12.22
2018-05-02T08:15:40.453Z,12.24
2018-05-02T08:16:40.400Z,12.40
2018-05-02T08:18:33.231Z,12.37
2018-05-02T08:19:33.199Z,12.54
2018-05-02T08:21:26.207Z,12.54
2018-05-02T08:22:26.141Z,12.54
2018-05-02T08:24:19.108Z,12.58
2018-05-02T08:25:19.102Z,12.64
2018-05-02T08:27:12.441Z,12.73
2018-05-02T08:28:12.401Z,12.75
2018-05-02T08:30:05.269Z,12.86
2018-05-02T08:31:05.229Z,12.98
2018-05-02T08:32:58.121Z,12.95
2018-05-02T08:33:58.011Z,12.98
2018-05-02T08:35:51.310Z,12.97
2018-05-02T08:36:51.187Z,13.12
2018-05-02T08:38:44.245Z,13.05
2018-05-02T08:39:44.180Z,13.04
2018-05-02T08:41:37.397Z,13.19
2018-05-02T08:42:37.331Z,13.37
2018-05-02T08:44:30.341Z,13.49
2018-05-02T08:45:30.309Z,13.53
2018-05-02T08:47:23.344Z,13.70
2018-05-02T08:48:23.289Z,13.78
2018-05-02T08:50:16.298Z,13.77
2018-05-02T08:51:16.161Z,13.95
2018-05-02T08:53:09.218Z,14.12
2018-05-02T08:54:09.177Z,14.17
2018-05-02T08:56:02.170Z,14.35
2018-05-02T08:57:03.483Z,14.28
2018-05-02T08:58:54.997Z,14.43
2018-05-02T08:59:54.948Z,14.44
2018-05-02T09:01:47.872Z,14.50
2018-05-02T09:02:48.268Z,14.51
2018-05-02T09:04:41.542Z,14.51
2018-05-02T09:05:40.708Z,14.60
2018-05-02T09:07:35.020Z,14.73
2018-05-02T09:08:33.813Z,14.69
2018-05-02T09:10:26.633Z,14.72
2018-05-02T09:11:27.139Z,14.88
2018-05-02T09:13:19.434Z,14.73
2018-05-02T09:14:19.386Z,14.92
2018-05-02T09:16:12.394Z,14.96
2018-05-02T09:17:12.378Z,14.86
2018-05-02T09:19:05.228Z,14.82
2018-05-02T09:20:05.150Z,15.03
2018-05-02T09:21:58.053Z,15.11
2018-05-02T09:22:57.948Z,15.19
2018-05-02T09:24:50.988Z,15.31
2018-05-02T09:25:50.939Z,15.52
2018-05-02T09:27:43.945Z,15.43
2018-05-02T09:28:43.928Z,15.44
2018-05-02T09:30:37.001Z,15.28
2018-05-02T09:31:36.882Z,15.31
2018-05-02T09:33:29.903Z,15.31
2018-05-02T09:34:29.864Z,15.36
2018-05-02T09:36:22.865Z,15.44
2018-05-02T09:37:22.827Z,15.52
2018-05-02T09:39:15.733Z,15.70
2018-05-02T09:40:15.662Z,15.76
2018-05-02T09:42:08.686Z,15.80
2018-05-02T09:43:08.651Z,15.76
2018-05-02T09:45:01.672Z,15.76
2018-05-02T09:46:01.624Z,15.80
2018-05-02T09:47:54.438Z,15.94
2018-05-02T09:48:54.403Z,15.76
2018-05-02T09:50:47.378Z,15.79
2018-05-02T09:51:47.314Z,15.79
2018-05-02T09:53:40.348Z,16.01
2018-05-02T09:54:40.335Z,16.20
2018-05-02T09:56:33.578Z,16.68
2018-05-02T09:57:33.454Z,16.94
2018-05-02T09:59:26.450Z,17.59
2018-05-02T10:00:26.417Z,17.64
2018-05-02T10:02:19.566Z,18.44
2018-05-02T10:03:19.512Z,19.00
2018-05-02T10:05:12.513Z,19.63
2018-05-02T10:06:12.489Z,20.09
2018-05-02T10:08:05.563Z,20.29
2018-05-02T10:09:05.521Z,20.39
2018-05-02T10:10:58.439Z,20.99
2018-05-02T10:11:58.403Z,20.87
2018-05-02T10:13:51.438Z,20.81
2018-05-02T10:14:51.389Z,21.39
2018-05-02T10:16:44.403Z,22.11
2018-05-02T10:17:44.390Z,22.25
2018-05-02T10:19:37.316Z,22.50
2018-05-02T10:20:37.292Z,22.84
2018-05-02T10:22:30.289Z,23.12
2018-05-02T10:23:30.238Z,23.32
2018-05-02T10:25:23.267Z,22.83
2018-05-02T10:26:23.326Z,23.12
2018-05-02T10:28:16.090Z,23.13
2018-05-02T10:29:16.070Z,23.00
2018-05-02T10:31:09.088Z,23.93
2018-05-02T10:32:09.043Z,24.47
2018-05-02T10:34:02.089Z,24.76
2018-05-02T10:35:02.069Z,24.93
2018-05-02T10:36:54.932Z,25.55
2018-05-02T10:37:54.874Z,25.91
2018-05-02T10:39:47.723Z,26.40
2018-05-02T10:40:47.699Z,25.91
2018-05-02T10:42:40.729Z,26.53
2018-05-02T10:43:40.701Z,26.59
2018-05-02T10:45:33.718Z,26.40
2018-05-02T10:46:33.704Z,26.81
2018-05-02T10:48:26.741Z,27.15
2018-05-02T10:49:26.571Z,26.59
2018-05-02T10:51:19.435Z,26.53
2018-05-02T10:52:19.386Z,26.43
2018-05-02T10:54:12.415Z,26.62
2018-05-02T10:55:12.414Z,26.96
2018-05-02T10:57:05.280Z,26.33
2018-05-02T10:58:05.204Z,26.22
2018-05-02T10:59:58.297Z,26.70
2018-05-02T11:00:58.264Z,27.11
2018-05-02T11:02:51.357Z,27.29
2018-05-02T11:03:51.314Z,27.37
2018-05-02T11:05:44.465Z,27.59
2018-05-02T11:06:44.460Z,27.77
2018-05-02T11:08:37.581Z,27.65
2018-05-02T11:09:37.546Z,27.74
2018-05-02T11:11:32.078Z,26.80
2018-05-02T11:12:30.348Z,26.38
2018-05-02T11:14:23.386Z,27.22
2018-05-02T11:15:23.335Z,27.48
2018-05-02T11:17:16.363Z,27.75
2018-05-02T11:18:16.359Z,27.89
2018-05-02T11:20:09.409Z,27.51
2018-05-02T11:21:09.326Z,27.42
2018-05-02T11:23:02.163Z,27.30
2018-05-02T11:24:02.139Z,27.39
2018-05-02T11:25:55.244Z,26.96
2018-05-02T11:26:55.179Z,26.83
2018-05-02T11:28:48.388Z,27.05
2018-05-02T11:29:48.321Z,27.27
2018-05-02T11:31:41.335Z,27.20
2018-05-02T11:32:41.421Z,27.11
2018-05-02T11:34:34.166Z,27.22
2018-05-02T11:35:34.126Z,27.29
2018-05-02T11:37:27.014Z,26.13
2018-05-02T11:38:26.978Z,25.58
2018-05-02T11:40:20.021Z,25.29
2018-05-02T11:41:19.985Z,25.70
2018-05-02T11:43:13.025Z,25.66
2018-05-02T11:44:12.979Z,25.70
2018-05-02T11:46:06.081Z,25.51
2018-05-02T11:47:05.918Z,24.57
2018-05-02T11:48:58.965Z,25.29
2018-05-02T11:49:58.935Z,25.58
2018-05-02T11:51:52.293Z,26.03
2018-05-02T11:52:52.149Z,26.25
2018-05-02T11:54:44.992Z,25.50
2018-05-02T11:55:44.950Z,25.35
2018-05-02T11:57:37.985Z,25.04
2018-05-02T11:58:37.975Z,24.95
2018-05-02T12:00:30.886Z,24.93
2018-05-02T12:01:30.757Z,24.65
2018-05-02T12:03:23.601Z,24.36
2018-05-02T12:04:23.580Z,24.23
2018-05-02T12:06:16.597Z,24.01
2018-05-02T12:07:16.545Z,24.16
2018-05-02T12:09:09.559Z,24.61
2018-05-02T12:10:09.528Z,24.43
2018-05-02T12:12:02.641Z,24.38
2018-05-02T12:13:02.445Z,24.60
2018-05-02T12:14:55.468Z,24.76
2018-05-02T12:15:55.422Z,24.73
2018-05-02T12:17:48.460Z,24.86
2018-05-02T12:18:48.416Z,25.21
2018-05-02T12:20:41.302Z,25.55
2018-05-02T12:21:41.255Z,25.50
2018-05-02T12:23:34.118Z,25.68
2018-05-02T12:24:34.067Z,25.77
2018-05-02T12:26:26.928Z,26.02
2018-05-02T12:27:26.870Z,26.22
2018-05-02T12:29:20.243Z,25.84
2018-05-02T12:30:20.211Z,25.23
2018-05-02T12:32:13.265Z,25.72
2018-05-02T12:33:13.217Z,25.59
2018-05-02T12:35:06.270Z,25.50
2018-05-02T12:36:06.267Z,25.63
2018-05-02T12:37:59.301Z,25.84
2018-05-02T12:38:59.257Z,25.96
2018-05-02T12:40:52.311Z,24.70
2018-05-02T12:41:52.252Z,25.13
2018-05-02T12:43:45.478Z,25.48
2018-05-02T12:44:45.444Z,25.50
2018-05-02T12:46:38.549Z,25.80
2018-05-02T12:47:38.456Z,25.93
2018-05-02T12:49:31.787Z,25.99
2018-05-02T12:50:31.741Z,25.96
2018-05-02T12:52:24.806Z,25.40
2018-05-02T12:53:24.797Z,25.66
2018-05-02T12:55:17.922Z,25.16
2018-05-02T12:56:18.046Z,25.10
2018-05-02T12:58:10.751Z,25.70
2018-05-02T12:59:10.711Z,25.88
2018-05-02T13:01:03.711Z,25.88
2018-05-02T13:02:03.701Z,25.88
2018-05-02T13:03:56.637Z,25.23
2018-05-02T13:04:56.553Z,25.18
2018-05-02T13:06:49.717Z,24.89
2018-05-02T13:07:49.557Z,25.03
2018-05-02T13:09:42.591Z,25.18
2018-05-02T13:10:42.575Z,25.32
2018-05-02T13:12:35.669Z,25.13
2018-05-02T13:13:35.621Z,25.31
2018-05-02T13:15:28.665Z,24.74
2018-05-02T13:16:28.697Z,24.39
2018-05-02T13:18:21.858Z,23.84
2018-05-02T13:19:21.825Z,24.16
2018-05-02T13:21:14.814Z,24.30
2018-05-02T13:22:14.827Z,24.30
2018-05-02T13:24:08.043Z,24.48
2018-05-02T13:25:08.009Z,23.98
2018-05-02T13:27:01.017Z,24.58
2018-05-02T13:28:00.979Z,24.60
2018-05-02T13:29:53.832Z,24.57
2018-05-02T13:30:53.792Z,24.39
2018-05-02T13:32:46.712Z,24.18
2018-05-02T13:33:46.697Z,24.36
2018-05-02T13:35:39.717Z,24.65
2018-05-02T13:36:39.695Z,24.89
2018-05-02T13:38:32.686Z,24.91
2018-05-02T13:39:32.657Z,24.93
2018-05-02T13:41:25.545Z,24.89
2018-05-02T13:42:25.496Z,24.96
2018-05-02T13:44:18.520Z,25.26
2018-05-02T13:45:18.503Z,25.14
2018-05-02T13:47:11.527Z,25.14
2018-05-02T13:48:11.518Z,24.92
2018-05-02T13:50:04.305Z,24.85
2018-05-02T13:51:04.273Z,24.70
2018-05-02T13:52:57.209Z,24.63
2018-05-02T13:53:57.078Z,24.73
2018-05-02T13:55:50.096Z,24.01
2018-05-02T13:56:50.056Z,24.06
2018-05-02T13:58:43.052Z,24.32
2018-05-02T13:59:43.038Z,24.13
2018-05-02T14:01:36.075Z,24.10
2018-05-02T14:02:35.903Z,24.30
2018-05-02T14:04:29.111Z,24.26
2018-05-02T14:05:29.146Z,24.18
2018-05-02T14:07:22.368Z,24.24
2018-05-02T14:08:22.237Z,24.32
2018-05-02T14:10:15.057Z,24.40
2018-05-02T14:11:15.015Z,24.57
2018-05-02T14:13:08.027Z,24.68
2018-05-02T14:14:07.998Z,24.66
2018-05-02T14:16:01.259Z,24.65
2018-05-02T14:17:01.183Z,24.58
2018-05-02T14:18:54.183Z,24.51
2018-05-02T14:19:54.247Z,24.48
2018-05-02T14:21:47.408Z,24.08
2018-05-02T14:22:47.306Z,24.14
2018-05-02T14:24:40.476Z,23.61
2018-05-02T14:25:40.339Z,23.88
2018-05-02T14:27:33.658Z,23.61
2018-05-02T14:28:33.519Z,23.68
2018-05-02T14:30:26.390Z,23.91
2018-05-02T14:31:26.338Z,24.16
2018-05-02T14:33:19.519Z,24.24
2018-05-02T14:34:19.492Z,24.21
2018-05-02T14:36:12.543Z,24.33
2018-05-02T14:37:12.267Z,24.36
2018-05-02T14:39:05.273Z,24.06
2018-05-02T14:40:05.259Z,24.16
2018-05-02T14:41:58.344Z,24.32
2018-05-02T14:42:58.296Z,24.17
2018-05-02T14:44:51.160Z,24.16
2018-05-02T14:45:51.126Z,23.88
2018-05-02T14:47:44.148Z,23.40
2018-05-02T14:48:44.103Z,23.40
2018-05-02T14:50:36.929Z,23.20
2018-05-02T14:51:37.025Z,22.96
2018-05-02T14:53:30.339Z,23.15
2018-05-02T14:54:30.113Z,22.99
2018-05-02T14:56:23.048Z,22.36
2018-05-02T14:57:23.009Z,22.53
2018-05-02T14:59:16.052Z,22.47
2018-05-02T15:00:15.983Z,22.41
2018-05-02T15:02:09.018Z,22.78
2018-05-02T15:03:08.831Z,22.90
2018-05-02T15:05:01.724Z,23.20
2018-05-02T15:06:01.640Z,23.39
2018-05-02T15:07:54.634Z,23.56
2018-05-02T15:08:54.664Z,23.71
2018-05-02T15:10:47.468Z,23.78
2018-05-02T15:11:47.408Z,23.80
2018-05-02T15:13:40.288Z,23.18
2018-05-02T15:14:40.240Z,22.99
2018-05-02T15:16:33.185Z,22.91
2018-05-02T15:17:33.009Z,23.41
2018-05-02T15:19:26.065Z,23.63
2018-05-02T15:20:26.013Z,23.56
2018-05-02T15:22:18.864Z,23.88
2018-05-02T15:23:18.836Z,24.03
2018-05-02T15:25:12.027Z,23.36
2018-05-02T15:26:11.984Z,23.39
2018-05-02T15:28:04.999Z,22.93
2018-05-02T15:29:04.965Z,23.25
2018-05-02T15:30:58.208Z,23.10
2018-05-02T15:31:58.089Z,22.85
2018-05-02T15:33:51.130Z,22.83
2018-05-02T15:34:51.100Z,22.98
2018-05-02T15:36:44.551Z,23.20
2018-05-02T15:37:44.046Z,23.34
2018-05-02T15:39:37.134Z,23.66
2018-05-02T15:40:36.914Z,23.87
2018-05-02T15:42:29.908Z,23.71
2018-05-02T15:43:29.886Z,23.69
2018-05-02T15:45:22.961Z,23.99
2018-05-02T15:46:22.888Z,24.06
2018-05-02T15:48:15.816Z,23.68
2018-05-02T15:49:15.809Z,23.88
2018-05-02T15:51:08.756Z,23.69
2018-05-02T15:52:08.720Z,23.61
2018-05-02T15:54:01.694Z,23.50
2018-05-02T15:55:01.671Z,23.37
2018-05-02T15:56:54.626Z,23.28
2018-05-02T15:57:54.604Z,23.44
2018-05-02T15:59:47.442Z,23.62
2018-05-02T16:00:47.385Z,23.69
2018-05-02T16:02:40.429Z,23.28
2018-05-02T16:03:40.470Z,23.18
2018-05-02T16:05:33.631Z,22.55
2018-05-02T16:06:33.516Z,22.25
2018-05-02T16:08:26.516Z,22.17
2018-05-02T16:09:26.471Z,22.29
2018-05-02T16:11:19.482Z,22.20
2018-05-02T16:12:19.421Z,22.08
2018-05-02T16:14:12.561Z,22.11
2018-05-02T16:15:12.536Z,21.98
2018-05-02T16:17:05.503Z,21.98
2018-05-02T16:18:05.503Z,21.69
2018-05-02T16:19:58.669Z,21.55
2018-05-02T16:20:58.608Z,21.35
2018-05-02T16:22:51.633Z,21.21
2018-05-02T16:23:51.576Z,21.07
2018-05-02T16:25:44.577Z,21.21
2018-05-02T16:26:44.553Z,21.09
2018-05-02T16:28:37.637Z,21.22
2018-05-02T16:29:37.429Z,21.21
2018-05-02T16:31:30.421Z,21.18
2018-05-02T16:32:30.402Z,21.17
2018-05-02T16:34:23.397Z,21.11
2018-05-02T16:35:23.373Z,21.18
2018-05-02T16:37:16.270Z,21.12
2018-05-02T16:38:16.211Z,20.99
2018-05-02T16:40:09.205Z,20.87
2018-05-02T16:41:09.198Z,20.92
2018-05-02T16:43:02.186Z,20.44
2018-05-02T16:44:02.138Z,20.48
2018-05-02T16:45:54.996Z,20.41
2018-05-02T16:46:54.941Z,20.39
2018-05-02T16:48:47.848Z,20.32
2018-05-02T16:49:47.749Z,20.40
2018-05-02T16:51:40.747Z,20.41
2018-05-02T16:52:40.702Z,20.34
2018-05-02T16:54:33.752Z,20.29
2018-05-02T16:55:33.667Z,20.31
2018-05-02T16:57:26.766Z,19.99
2018-05-02T16:58:26.637Z,19.92
2018-05-02T17:00:19.473Z,19.88
2018-05-02T17:01:19.453Z,19.73
2018-05-02T17:03:12.422Z,19.55
2018-05-02T17:04:12.409Z,19.63
2018-05-02T17:06:05.213Z,19.54
2018-05-02T17:07:05.175Z,19.47
2018-05-02T17:08:58.067Z,19.54
2018-05-02T17:09:58.019Z,19.51
2018-05-02T17:11:50.999Z,19.40
2018-05-02T17:12:50.986Z,19.24
2018-05-02T17:14:44.006Z,19.08
2018-05-02T17:15:43.958Z,19.08
2018-05-02T17:17:36.771Z,18.83
2018-05-02T17:18:36.757Z,18.96
2018-05-02T17:20:29.569Z,18.88
2018-05-02T17:21:29.532Z,18.74
2018-05-02T17:23:22.703Z,18.81
2018-05-02T17:24:22.681Z,18.75
2018-05-02T17:26:15.633Z,18.58
2018-05-02T17:27:15.599Z,18.55
2018-05-02T17:29:08.667Z,18.55
2018-05-02T17:30:08.455Z,18.55
2018-05-02T17:32:01.323Z,18.37
2018-05-02T17:33:01.221Z,18.33
2018-05-02T17:34:54.254Z,18.28
2018-05-02T17:35:54.290Z,18.22
2018-05-02T17:37:47.477Z,18.28
2018-05-02T17:38:47.322Z,18.13
2018-05-02T17:40:40.187Z,18.08
2018-05-02T17:41:40.119Z,17.98
2018-05-02T17:43:33.134Z,17.97
2018-05-02T17:44:33.153Z,17.97
2018-05-02T17:46:25.977Z,17.82
2018-05-02T17:47:25.889Z,17.79
2018-05-02T17:49:18.790Z,17.68
2018-05-02T17:50:18.713Z,17.76
2018-05-02T17:52:11.691Z,17.57
2018-05-02T17:53:11.682Z,17.64
2018-05-02T17:55:04.641Z,17.57
2018-05-02T17:56:04.687Z,17.46
2018-05-02T17:57:57.848Z,17.45
2018-05-02T17:58:57.800Z,17.48
2018-05-02T18:00:50.629Z,17.42
2018-05-02T18:01:50.589Z,17.31
2018-05-02T18:03:43.638Z,17.15
2018-05-02T18:04:43.545Z,17.16
2018-05-02T18:06:36.410Z,17.04
2018-05-02T18:07:36.360Z,17.01
2018-05-02T18:09:29.356Z,16.79
2018-05-02T18:10:29.376Z,16.74
2018-05-02T18:12:22.379Z,16.66
2018-05-02T18:13:22.358Z,16.68
2018-05-02T18:15:15.589Z,16.56
2018-05-02T18:16:15.478Z,16.46
2018-05-02T18:18:08.503Z,16.54
2018-05-02T18:19:08.487Z,16.43
2018-05-02T18:21:01.316Z,16.31
2018-05-02T18:22:01.253Z,16.35
2018-05-02T18:23:54.080Z,16.24
2018-05-02T18:24:54.021Z,16.28
2018-05-02T18:26:47.111Z,16.20
2018-05-02T18:27:47.051Z,16.13
2018-05-02T18:29:40.040Z,16.12
2018-05-02T18:30:39.990Z,16.01
2018-05-02T18:32:33.281Z,15.88
2018-05-02T18:33:33.143Z,15.97
2018-05-02T18:35:25.993Z,15.91
2018-05-02T18:36:25.960Z,15.88
2018-05-02T18:38:19.024Z,15.67
2018-05-02T18:39:18.973Z,15.70
2018-05-02T18:41:11.808Z,15.59
2018-05-02T18:42:11.781Z,15.43
2018-05-02T18:44:04.805Z,15.52
2018-05-02T18:45:04.742Z,15.52
2018-05-02T18:46:57.721Z,15.52
2018-05-02T18:47:57.785Z,15.46